Decoded Metar for KBGM (BINGHAMTON in NY, USA) (IATA:BGM) | Meteo·Mobile Aviation Weather
aviador You're here:

KBGM Decoded Metar

BINGHAMTON in NY, USA
Report Time2018-08-22 04:53:00
UTC Time2018-08-22 05:38:12
Flight Rules ifr IFR
Wind170° at 08 Gusting to 16 kt
W.Decomp.*RWY 16: 7.4 kt HW 3.0 kt RCW
RWY 10: 1.1 kt HW 7.9 kt RCW
W.Rank170° ranks 8
Current wind is above 170° avg. (6.8)
Visibility9999 m
Phenomena:N/A
Clouds:Overcast 007 Hf
Expected CloudBase > 400 ft AGL from Temp-Dew spread
Ceiling700 ft
Temp19°C (ISA +7)
Dew Point18°C (94% RH)
AAT18.9°C
QNH1009 hPa
Density Alt2,867 ft
Elevation1,608 ft
Report Wrong Elevation
Raw Report
KBGM 220453Z AUTO 17008G16KT 10SM OVC007 19/18 A2980 RMK AO2
RAB31E49 SLP084 P0000 T01940183 402000167=

Extra information for KBGM:More info

Metar Taf Metar & Taf Last 4 Metars F.Rules Stats Wind Profile Meteogram Temp Stats Airport Information Weather charts Add Link Nearby VenuesMetar ALERT Operation Metar Decoded Social comments

AIRNAV info for KBGM